createdAt,value
2018-04-18T00:00:22.369Z,71.85
2018-04-18T00:01:27.934Z,72.01
2018-04-18T00:02:33.066Z,72.07
2018-04-18T00:03:38.808Z,72.16
2018-04-18T00:04:44.520Z,72.22
2018-04-18T00:05:50.299Z,72.29
2018-04-18T00:06:55.190Z,72.36
2018-04-18T00:08:00.113Z,72.49
2018-04-18T00:09:06.153Z,72.51
2018-04-18T00:10:11.312Z,72.48
2018-04-18T00:11:17.302Z,72.37
2018-04-18T00:12:22.754Z,72.45
2018-04-18T00:13:28.222Z,72.56
2018-04-18T00:14:33.639Z,72.68
2018-04-18T00:15:39.135Z,72.67
2018-04-18T00:16:44.511Z,72.40
2018-04-18T00:17:50.305Z,72.12
2018-04-18T00:18:55.779Z,71.88
2018-04-18T00:20:00.662Z,71.69
2018-04-18T00:21:06.259Z,71.71
2018-04-18T00:22:12.387Z,71.97
2018-04-18T00:23:17.512Z,72.28
2018-04-18T00:24:22.676Z,72.53
2018-04-18T00:25:28.388Z,72.72
2018-04-18T00:26:33.519Z,73.02
2018-04-18T00:27:39.149Z,73.07
2018-04-18T00:28:45.140Z,73.12
2018-04-18T00:29:50.521Z,73.19
2018-04-18T00:30:55.609Z,73.25
2018-04-18T00:32:00.716Z,73.33
2018-04-18T00:33:06.086Z,73.52
2018-04-18T00:34:12.002Z,73.71
2018-04-18T00:35:17.870Z,73.93
2018-04-18T00:36:23.262Z,74.11
2018-04-18T00:37:29.624Z,74.18
2018-04-18T00:38:34.682Z,74.33
2018-04-18T00:39:40.425Z,74.29
2018-04-18T00:40:46.035Z,74.36
2018-04-18T00:41:52.008Z,74.32
2018-04-18T00:42:57.448Z,74.00
2018-04-18T00:44:02.938Z,73.69
2018-04-18T00:45:08.301Z,73.41
2018-04-18T00:46:13.896Z,73.20
2018-04-18T00:47:19.079Z,73.17
2018-04-18T00:48:24.737Z,73.29
2018-04-18T00:49:29.927Z,73.18
2018-04-18T00:50:35.205Z,73.08
2018-04-18T00:51:40.799Z,73.27
2018-04-18T00:52:45.675Z,73.44
2018-04-18T00:53:50.677Z,73.59
2018-04-18T00:54:56.905Z,73.76
2018-04-18T00:56:04.691Z,73.86
2018-04-18T00:57:09.343Z,73.90
2018-04-18T00:58:14.296Z,73.99
2018-04-18T00:59:19.468Z,74.06
2018-04-18T01:00:25.047Z,74.17
2018-04-18T01:01:30.710Z,74.39
2018-04-18T01:02:35.743Z,74.55
2018-04-18T01:03:41.503Z,74.65
2018-04-18T01:04:47.420Z,74.71
2018-04-18T01:05:53.214Z,74.76
2018-04-18T01:06:58.783Z,74.88
2018-04-18T01:08:03.660Z,75.03
2018-04-18T01:09:09.348Z,75.08
2018-04-18T01:10:14.610Z,75.17
2018-04-18T01:11:20.168Z,75.12
2018-04-18T01:12:25.438Z,75.12
2018-04-18T01:13:30.784Z,75.10
2018-04-18T01:14:36.546Z,75.13
2018-04-18T01:15:42.556Z,75.12
2018-04-18T01:16:47.344Z,75.18
2018-04-18T01:17:52.732Z,75.19
2018-04-18T01:18:57.707Z,75.22
2018-04-18T01:20:02.525Z,75.20
2018-04-18T01:21:08.637Z,75.13
2018-04-18T01:22:14.371Z,75.19
2018-04-18T01:23:19.898Z,75.24
2018-04-18T01:24:24.718Z,75.32
2018-04-18T01:25:29.822Z,75.41
2018-04-18T01:26:35.267Z,75.56
2018-04-18T01:27:40.734Z,75.67
2018-04-18T01:28:45.962Z,75.82
2018-04-18T01:29:51.545Z,75.97
2018-04-18T01:30:56.867Z,76.09
2018-04-18T01:32:03.438Z,76.19
2018-04-18T01:33:08.897Z,76.35
2018-04-18T01:34:15.607Z,76.39
2018-04-18T01:35:20.311Z,76.42
2018-04-18T01:36:25.796Z,76.46
2018-04-18T01:37:31.057Z,76.52
2018-04-18T01:38:37.011Z,76.60
2018-04-18T01:39:41.765Z,76.64
2018-04-18T01:40:47.591Z,76.78
2018-04-18T01:41:53.657Z,76.75
2018-04-18T01:42:59.059Z,76.79
2018-04-18T01:44:03.943Z,76.91
2018-04-18T01:45:10.203Z,76.90
2018-04-18T01:46:15.281Z,76.81
2018-04-18T01:47:20.955Z,76.80
2018-04-18T01:48:26.310Z,76.77
2018-04-18T01:49:33.456Z,76.69
2018-04-18T01:50:38.539Z,76.56
2018-04-18T01:51:44.046Z,76.44
2018-04-18T01:52:49.904Z,76.40
2018-04-18T01:53:55.133Z,76.31
2018-04-18T01:55:00.206Z,76.20
2018-04-18T01:56:04.828Z,76.46
2018-04-18T01:57:10.966Z,76.66
2018-04-18T01:58:16.055Z,76.81
2018-04-18T01:59:21.575Z,76.96
2018-04-18T02:00:26.980Z,77.03
2018-04-18T02:01:33.251Z,77.09
2018-04-18T02:02:38.956Z,76.98
2018-04-18T02:03:44.754Z,76.72
2018-04-18T02:04:49.953Z,76.60
2018-04-18T02:05:57.512Z,76.52
2018-04-18T02:07:02.710Z,76.42
2018-04-18T02:08:07.864Z,76.34
2018-04-18T02:09:13.329Z,76.59
2018-04-18T02:10:18.532Z,76.62
2018-04-18T02:11:24.724Z,76.58
2018-04-18T02:12:29.810Z,76.68
2018-04-18T02:13:35.300Z,76.67
2018-04-18T02:14:40.625Z,76.73
2018-04-18T02:15:46.469Z,76.64
2018-04-18T02:16:52.215Z,76.73
2018-04-18T02:17:57.559Z,76.87
2018-04-18T02:19:02.879Z,76.77
2018-04-18T02:20:08.810Z,76.53
2018-04-18T02:21:14.394Z,76.40
2018-04-18T02:22:20.061Z,76.18
2018-04-18T02:23:25.680Z,76.01
2018-04-18T02:24:30.357Z,75.90
2018-04-18T02:25:35.685Z,75.81
2018-04-18T02:26:40.921Z,75.67
2018-04-18T02:27:46.551Z,75.62
2018-04-18T02:28:51.610Z,75.58
2018-04-18T02:29:57.726Z,75.62
2018-04-18T02:31:03.279Z,75.59
2018-04-18T02:32:08.644Z,75.48
2018-04-18T02:33:14.383Z,75.38
2018-04-18T02:34:19.195Z,75.51
2018-04-18T02:35:24.791Z,75.57
2018-04-18T02:36:29.696Z,75.58
2018-04-18T02:37:35.373Z,75.48
2018-04-18T02:38:40.806Z,75.40
2018-04-18T02:39:46.838Z,75.30
2018-04-18T02:40:51.904Z,75.37
2018-04-18T02:41:57.021Z,75.70
2018-04-18T02:43:03.096Z,76.07
2018-04-18T02:44:08.107Z,76.25
2018-04-18T02:45:13.915Z,76.42
2018-04-18T02:46:18.820Z,76.75
2018-04-18T02:47:24.389Z,76.91
2018-04-18T02:48:29.942Z,77.20
2018-04-18T02:49:35.994Z,77.39
2018-04-18T02:50:42.018Z,77.63
2018-04-18T02:51:47.052Z,77.74
2018-04-18T02:52:52.011Z,77.77
2018-04-18T02:53:57.865Z,77.99
2018-04-18T02:55:03.078Z,78.08
2018-04-18T02:56:08.084Z,78.19
2018-04-18T02:57:13.955Z,78.38
2018-04-18T02:58:19.115Z,78.47
2018-04-18T02:59:23.933Z,78.53
2018-04-18T03:00:30.070Z,78.62
2018-04-18T03:01:35.379Z,78.76
2018-04-18T03:02:40.361Z,78.85
2018-04-18T03:03:46.638Z,78.93
2018-04-18T03:04:51.768Z,79.09
2018-04-18T03:05:56.844Z,79.17
2018-04-18T03:07:02.096Z,79.20
2018-04-18T03:08:07.539Z,79.25
2018-04-18T03:09:13.797Z,79.27
2018-04-18T03:10:20.362Z,79.38
2018-04-18T03:11:26.860Z,79.43
2018-04-18T03:12:31.726Z,79.48
2018-04-18T03:13:36.910Z,79.53
2018-04-18T03:14:42.002Z,79.66
2018-04-18T03:15:47.246Z,79.76
2018-04-18T03:16:53.105Z,79.79
2018-04-18T03:17:58.548Z,79.77
2018-04-18T03:19:03.996Z,79.52
2018-04-18T03:20:09.177Z,79.19
2018-04-18T03:21:14.824Z,78.90
2018-04-18T03:22:19.882Z,78.65
2018-04-18T03:23:26.772Z,78.63
2018-04-18T03:24:31.830Z,78.76
2018-04-18T03:25:37.216Z,78.96
2018-04-18T03:26:43.206Z,79.24
2018-04-18T03:27:48.643Z,79.42
2018-04-18T03:28:53.242Z,79.41
2018-04-18T03:29:59.104Z,79.21
2018-04-18T03:31:05.176Z,78.98
2018-04-18T03:32:09.957Z,78.87
2018-04-18T03:33:15.863Z,78.86
2018-04-18T03:34:20.480Z,78.96
2018-04-18T03:35:25.670Z,78.95
2018-04-18T03:36:31.822Z,78.79
2018-04-18T03:37:36.756Z,78.83
2018-04-18T03:38:41.598Z,78.75
2018-04-18T03:39:47.038Z,78.59
2018-04-18T03:40:52.382Z,78.34
2018-04-18T03:41:58.451Z,78.24
2018-04-18T03:43:03.883Z,78.18
2018-04-18T03:44:08.969Z,78.10
2018-04-18T03:45:15.145Z,77.98
2018-04-18T03:46:20.525Z,77.90
2018-04-18T03:47:25.549Z,78.02
2018-04-18T03:48:31.110Z,77.97
2018-04-18T03:49:37.200Z,77.93
2018-04-18T03:50:42.898Z,77.97
2018-04-18T03:51:48.201Z,77.98
2018-04-18T03:52:53.209Z,78.08
2018-04-18T03:53:58.191Z,78.07
2018-04-18T03:55:04.188Z,78.02
2018-04-18T03:56:10.791Z,78.10
2018-04-18T03:57:15.749Z,78.31
2018-04-18T03:58:21.686Z,78.30
2018-04-18T03:59:26.498Z,78.40
2018-04-18T04:00:34.901Z,78.68
2018-04-18T04:01:39.887Z,78.89
2018-04-18T04:02:44.836Z,79.20
2018-04-18T04:03:49.669Z,79.37
2018-04-18T04:04:55.702Z,79.46
2018-04-18T04:06:00.416Z,79.27
2018-04-18T04:07:05.980Z,79.08
2018-04-18T04:08:11.847Z,79.04
2018-04-18T04:09:16.823Z,79.00
2018-04-18T04:10:22.115Z,78.99
2018-04-18T04:11:27.127Z,78.96
2018-04-18T04:12:33.169Z,78.98
2018-04-18T04:13:38.177Z,78.98
2018-04-18T04:14:43.345Z,78.96
2018-04-18T04:15:49.377Z,79.05
2018-04-18T04:16:58.943Z,79.03
2018-04-18T04:20:12.131Z,79.21
2018-04-18T04:21:21.937Z,79.83
2018-04-18T04:24:34.566Z,80.00
2018-04-18T04:25:39.089Z,79.45
2018-04-18T04:26:44.253Z,79.31
2018-04-18T04:27:49.147Z,79.36
2018-04-18T04:28:54.259Z,79.60
2018-04-18T04:29:59.598Z,79.65
2018-04-18T04:31:05.235Z,79.73
2018-04-18T04:32:10.445Z,79.77
2018-04-18T04:33:16.742Z,79.60
2018-04-18T04:34:21.699Z,79.46
2018-04-18T04:35:26.805Z,79.42
2018-04-18T04:36:32.132Z,79.35
2018-04-18T04:37:37.812Z,79.23
2018-04-18T04:38:43.736Z,79.08
2018-04-18T04:39:50.252Z,79.12
2018-04-18T04:40:55.635Z,79.07
2018-04-18T04:42:01.142Z,78.98
2018-04-18T04:43:06.892Z,78.98
2018-04-18T04:44:12.563Z,78.92
2018-04-18T04:45:17.543Z,78.94
2018-04-18T04:46:22.640Z,79.07
2018-04-18T04:47:27.934Z,79.03
2018-04-18T04:48:35.435Z,79.13
2018-04-18T04:49:41.163Z,79.31
2018-04-18T04:50:45.722Z,79.47
2018-04-18T04:51:50.866Z,79.68
2018-04-18T04:52:56.641Z,79.74
2018-04-18T04:54:01.945Z,79.67
2018-04-18T04:55:07.293Z,79.49
2018-04-18T04:56:13.090Z,79.45
2018-04-18T04:57:18.064Z,79.29
2018-04-18T04:58:24.148Z,79.31
2018-04-18T04:59:28.865Z,79.50
2018-04-18T05:00:34.079Z,79.46
2018-04-18T05:01:39.413Z,79.42
2018-04-18T05:02:44.299Z,79.43
2018-04-18T05:03:48.823Z,79.27
2018-04-18T05:04:53.745Z,79.18
2018-04-18T05:05:59.092Z,79.11
2018-04-18T05:07:04.719Z,79.16
2018-04-18T05:08:09.905Z,79.25
2018-04-18T05:09:15.271Z,79.28
2018-04-18T05:10:21.266Z,79.26
2018-04-18T05:11:27.230Z,79.48
2018-04-18T05:12:32.037Z,79.35
2018-04-18T05:13:37.552Z,79.37
2018-04-18T05:14:42.997Z,79.45
2018-04-18T05:15:48.336Z,79.48
2018-04-18T05:16:54.394Z,79.49
2018-04-18T05:18:00.616Z,79.50
2018-04-18T05:19:05.694Z,79.50
2018-04-18T05:20:11.128Z,79.64
2018-04-18T05:21:17.222Z,79.68
2018-04-18T05:22:22.363Z,79.83
2018-04-18T05:23:27.396Z,79.96
2018-04-18T05:24:32.107Z,80.08
2018-04-18T05:25:36.714Z,79.99
2018-04-18T05:26:41.216Z,79.75
2018-04-18T05:27:45.758Z,79.69
2018-04-18T05:28:50.418Z,79.71
2018-04-18T05:29:55.718Z,79.71
2018-04-18T05:31:00.482Z,79.66
2018-04-18T05:32:05.063Z,79.60
2018-04-18T05:33:09.585Z,79.47
2018-04-18T05:34:14.108Z,79.39
2018-04-18T05:35:19.198Z,79.19
2018-04-18T05:36:23.950Z,79.16
2018-04-18T05:37:28.555Z,79.16
2018-04-18T05:38:33.065Z,79.12
2018-04-18T05:39:37.638Z,79.14
2018-04-18T05:40:42.196Z,79.22
2018-04-18T05:41:48.012Z,79.29
2018-04-18T05:42:52.500Z,79.30
2018-04-18T05:43:57.132Z,79.24
2018-04-18T05:45:01.730Z,79.21
2018-04-18T05:46:06.406Z,79.15
2018-04-18T05:47:11.060Z,78.96
2018-04-18T05:48:16.157Z,78.76
2018-04-18T05:49:21.066Z,78.45
2018-04-18T05:50:27.386Z,78.12
2018-04-18T05:51:33.396Z,77.88
2018-04-18T05:52:38.590Z,77.72
2018-04-18T05:53:44.587Z,77.79
2018-04-18T05:54:50.465Z,77.97
2018-04-18T05:55:55.519Z,78.01
2018-04-18T05:57:00.914Z,78.10
2018-04-18T05:58:07.005Z,77.95
2018-04-18T05:59:12.857Z,77.61
2018-04-18T06:00:19.063Z,77.35
2018-04-18T06:01:24.776Z,77.09
2018-04-18T06:02:30.440Z,76.93
2018-04-18T06:03:36.104Z,76.68
2018-04-18T06:04:41.057Z,76.50
2018-04-18T06:05:46.025Z,76.38
2018-04-18T06:06:51.564Z,76.40
2018-04-18T06:07:57.105Z,76.52
2018-04-18T06:09:02.766Z,76.41
2018-04-18T06:10:08.007Z,76.42
2018-04-18T06:11:12.994Z,76.34
2018-04-18T06:12:18.690Z,76.17
2018-04-18T06:13:24.161Z,76.04
2018-04-18T06:14:30.310Z,75.69
2018-04-18T06:15:35.988Z,75.61
2018-04-18T06:16:41.882Z,75.37
2018-04-18T06:17:47.009Z,75.13
2018-04-18T06:18:53.072Z,74.97
2018-04-18T06:19:59.941Z,74.78
2018-04-18T06:21:05.064Z,74.62
2018-04-18T06:22:11.584Z,74.59
2018-04-18T06:23:17.071Z,74.39
2018-04-18T06:24:22.040Z,74.23
2018-04-18T06:25:27.446Z,73.92
2018-04-18T06:26:33.124Z,73.71
2018-04-18T06:27:38.716Z,73.50
2018-04-18T06:28:43.484Z,73.29
2018-04-18T06:29:49.152Z,73.24
2018-04-18T06:30:54.340Z,73.38
2018-04-18T06:32:00.421Z,73.16
2018-04-18T06:33:06.047Z,72.86
2018-04-18T06:34:10.665Z,72.69
2018-04-18T06:35:15.367Z,72.47
2018-04-18T06:36:20.012Z,72.33
2018-04-18T06:37:25.261Z,72.07
2018-04-18T06:38:30.141Z,71.71
2018-04-18T06:39:35.817Z,71.36
2018-04-18T06:40:41.046Z,71.05
2018-04-18T06:41:46.340Z,70.77
2018-04-18T06:42:51.867Z,69.04
2018-04-18T06:43:57.196Z,65.37
2018-04-18T06:45:03.791Z,62.54
2018-04-18T06:46:09.532Z,61.95
2018-04-18T06:47:14.074Z,62.37
2018-04-18T06:48:18.656Z,62.67
2018-04-18T06:49:23.842Z,63.54
2018-04-18T06:50:28.886Z,64.82
2018-04-18T06:51:34.039Z,65.34
2018-04-18T06:52:39.352Z,66.08
2018-04-18T06:53:44.182Z,66.58
2018-04-18T06:54:49.019Z,66.75
2018-04-18T06:55:57.301Z,66.84
2018-04-18T06:57:02.024Z,66.94
2018-04-18T06:58:07.168Z,66.79
2018-04-18T06:59:12.995Z,66.47
2018-04-18T07:00:17.891Z,66.23
2018-04-18T07:01:23.404Z,65.96
2018-04-18T07:02:29.227Z,65.84
2018-04-18T07:03:34.598Z,65.61
2018-04-18T07:04:40.588Z,65.41
2018-04-18T07:05:45.249Z,65.21
2018-04-18T07:06:50.638Z,65.20
2018-04-18T07:07:56.090Z,64.84
2018-04-18T07:09:01.516Z,64.53
2018-04-18T07:10:07.098Z,64.07
2018-04-18T07:11:12.697Z,63.66
2018-04-18T07:12:17.997Z,63.56
2018-04-18T07:13:23.287Z,63.32
2018-04-18T07:14:28.014Z,62.85
2018-04-18T07:15:33.510Z,62.63
2018-04-18T07:16:40.092Z,62.21
2018-04-18T07:17:44.830Z,62.42
2018-04-18T07:18:49.533Z,62.28
2018-04-18T07:19:54.177Z,62.12
2018-04-18T07:20:59.633Z,61.91
2018-04-18T07:22:04.517Z,61.50
2018-04-18T07:23:10.441Z,61.30
2018-04-18T07:24:15.344Z,61.29
2018-04-18T07:25:20.971Z,60.82
2018-04-18T07:26:26.413Z,60.72
2018-04-18T07:27:32.390Z,60.45
2018-04-18T07:28:41.531Z,60.33
2018-04-18T07:29:46.017Z,60.00
2018-04-18T07:30:50.507Z,60.09
2018-04-18T07:31:55.621Z,59.70
2018-04-18T07:33:00.460Z,59.69
2018-04-18T07:34:06.503Z,59.29
2018-04-18T07:35:11.999Z,58.73
2018-04-18T07:36:17.057Z,58.36
2018-04-18T07:37:22.181Z,57.98
2018-04-18T07:38:28.277Z,57.82
2018-04-18T07:39:34.168Z,57.58
2018-04-18T07:40:39.405Z,57.33
2018-04-18T07:41:44.235Z,56.95
2018-04-18T07:42:49.655Z,56.80
2018-04-18T07:43:54.729Z,56.94
2018-04-18T07:44:59.712Z,56.86
2018-04-18T07:46:04.520Z,56.68
2018-04-18T07:47:10.263Z,56.46
2018-04-18T07:48:16.541Z,56.09
2018-04-18T07:49:22.151Z,55.49
2018-04-18T07:50:27.425Z,54.81
2018-04-18T07:51:33.499Z,54.07
2018-04-18T07:52:38.401Z,54.34
2018-04-18T07:53:44.324Z,54.34
2018-04-18T07:54:49.829Z,54.13
2018-04-18T07:55:54.519Z,53.48
2018-04-18T07:57:00.136Z,53.19
2018-04-18T07:58:05.000Z,52.88
2018-04-18T07:59:10.929Z,52.57
2018-04-18T08:00:16.762Z,52.42
2018-04-18T08:01:21.484Z,52.34
2018-04-18T08:02:27.139Z,52.13
2018-04-18T08:03:34.488Z,51.71
2018-04-18T08:04:39.188Z,51.62
2018-04-18T08:05:44.751Z,51.19
2018-04-18T08:06:50.182Z,50.96
2018-04-18T08:07:55.782Z,50.43
2018-04-18T08:09:00.826Z,50.02
2018-04-18T08:10:06.225Z,49.52
2018-04-18T08:11:12.148Z,49.14
2018-04-18T08:12:17.462Z,48.62
2018-04-18T08:13:23.386Z,47.73
2018-04-18T08:14:28.612Z,47.47
2018-04-18T08:15:33.770Z,47.27
2018-04-18T08:16:39.647Z,47.36
2018-04-18T08:17:45.265Z,47.50
2018-04-18T08:18:50.554Z,47.15
2018-04-18T08:19:56.085Z,46.98
2018-04-18T08:21:01.557Z,46.23
2018-04-18T08:22:07.955Z,46.42
2018-04-18T08:23:13.637Z,46.45
2018-04-18T08:24:18.416Z,45.91
2018-04-18T08:25:24.848Z,45.59
2018-04-18T08:26:30.475Z,44.75
2018-04-18T08:27:35.517Z,44.61
2018-04-18T08:28:40.832Z,44.21
2018-04-18T08:29:47.397Z,43.86
2018-04-18T08:30:53.039Z,43.71
2018-04-18T08:31:58.253Z,43.90
2018-04-18T08:33:04.480Z,43.98
2018-04-18T08:34:09.677Z,43.99
2018-04-18T08:35:16.314Z,43.29
2018-04-18T08:36:21.043Z,42.38
2018-04-18T08:37:26.643Z,42.21
2018-04-18T08:38:31.717Z,42.06
2018-04-18T08:39:37.631Z,41.62
2018-04-18T08:40:42.568Z,41.75
2018-04-18T08:41:48.742Z,41.32
2018-04-18T08:42:53.833Z,41.08
2018-04-18T08:43:58.876Z,40.84
2018-04-18T08:45:04.695Z,41.17
2018-04-18T08:46:11.059Z,41.45
2018-04-18T08:47:16.513Z,40.76
2018-04-18T08:48:21.529Z,40.16
2018-04-18T08:49:27.053Z,40.64
2018-04-18T08:50:32.479Z,40.59
2018-04-18T08:51:37.554Z,40.17
2018-04-18T08:52:43.958Z,40.03
2018-04-18T08:53:49.284Z,39.44
2018-04-18T08:54:55.172Z,39.23
2018-04-18T08:55:59.872Z,39.63
2018-04-18T08:57:05.850Z,39.69
2018-04-18T08:58:10.602Z,39.58
2018-04-18T08:59:16.339Z,39.01
2018-04-18T09:00:22.953Z,38.67
2018-04-18T09:01:28.512Z,38.09
2018-04-18T09:02:34.212Z,37.73
2018-04-18T09:03:38.850Z,37.58
2018-04-18T09:04:43.768Z,37.40
2018-04-18T09:05:49.322Z,37.29
2018-04-18T09:06:54.212Z,37.32
2018-04-18T09:07:59.967Z,37.13
2018-04-18T09:09:05.507Z,36.96
2018-04-18T09:10:11.212Z,36.76
2018-04-18T09:11:16.852Z,37.17
2018-04-18T09:12:22.627Z,37.08
2018-04-18T09:13:27.304Z,36.79
2018-04-18T09:14:32.596Z,36.70
2018-04-18T09:15:37.826Z,36.46
2018-04-18T09:16:42.504Z,36.00
2018-04-18T09:17:47.039Z,35.90
2018-04-18T09:18:52.030Z,35.61
2018-04-18T09:19:56.629Z,34.96
2018-04-18T09:21:01.610Z,34.84
2018-04-18T09:22:06.133Z,35.09
2018-04-18T09:23:10.699Z,35.25
2018-04-18T09:24:15.315Z,35.11
2018-04-18T09:25:20.785Z,34.89
2018-04-18T09:26:27.588Z,34.86
2018-04-18T09:27:32.205Z,34.79
2018-04-18T09:28:36.829Z,34.79
2018-04-18T09:29:42.596Z,35.15
2018-04-18T09:30:47.173Z,35.33
2018-04-18T09:31:51.808Z,35.31
2018-04-18T09:32:56.448Z,35.15
2018-04-18T09:34:01.049Z,34.71
2018-04-18T09:35:05.614Z,34.30
2018-04-18T09:36:10.284Z,33.62
2018-04-18T09:37:15.331Z,33.55
2018-04-18T09:38:19.950Z,33.47
2018-04-18T09:39:24.564Z,33.17
2018-04-18T09:40:29.130Z,33.68
2018-04-18T09:41:33.859Z,33.85
2018-04-18T09:42:38.466Z,33.31
2018-04-18T09:43:43.390Z,33.48
2018-04-18T09:44:47.966Z,32.80
2018-04-18T09:45:52.588Z,32.86
2018-04-18T09:46:57.220Z,32.74
2018-04-18T09:48:01.848Z,32.61
2018-04-18T09:49:06.425Z,32.24
2018-04-18T09:50:11.310Z,32.13
2018-04-18T09:51:15.907Z,31.80
2018-04-18T09:52:20.449Z,31.37
2018-04-18T09:53:25.143Z,31.42
2018-04-18T09:54:29.858Z,30.95
2018-04-18T09:55:34.476Z,30.95
2018-04-18T09:56:39.825Z,30.75
2018-04-18T09:57:44.689Z,30.65
2018-04-18T09:58:49.534Z,30.85
2018-04-18T09:59:54.183Z,31.32
2018-04-18T10:00:58.913Z,31.60
2018-04-18T10:02:07.534Z,31.30
2018-04-18T10:03:15.686Z,31.13
2018-04-18T10:04:24.253Z,31.17
2018-04-18T10:05:28.755Z,30.87
2018-04-18T10:06:33.339Z,30.68
2018-04-18T10:07:38.493Z,30.12
2018-04-18T10:08:43.547Z,30.02
2018-04-18T10:09:48.119Z,29.92
2018-04-18T10:10:52.846Z,30.21
2018-04-18T10:11:57.405Z,30.21
2018-04-18T10:13:02.332Z,30.07
2018-04-18T10:14:07.279Z,29.92
2018-04-18T10:15:11.930Z,29.48
2018-04-18T10:16:16.560Z,29.20
2018-04-18T10:17:21.173Z,29.39
2018-04-18T10:18:25.800Z,29.26
2018-04-18T10:19:32.104Z,28.69
2018-04-18T10:20:38.332Z,28.73
2018-04-18T10:21:44.848Z,28.58
2018-04-18T10:22:51.282Z,28.30
2018-04-18T10:23:56.517Z,28.13
2018-04-18T10:25:03.127Z,28.06
2018-04-18T10:26:09.324Z,27.82
2018-04-18T10:27:15.197Z,27.33
2018-04-18T10:28:20.095Z,27.63
2018-04-18T10:29:25.131Z,27.81
2018-04-18T10:30:31.005Z,27.40
2018-04-18T10:31:40.007Z,27.41
2018-04-18T10:32:44.627Z,27.30
2018-04-18T10:33:49.233Z,27.38
2018-04-18T10:34:53.822Z,27.18
2018-04-18T10:35:59.298Z,27.25
2018-04-18T10:37:04.999Z,27.10
2018-04-18T10:38:10.398Z,26.90
2018-04-18T10:39:16.090Z,26.78
2018-04-18T10:40:21.530Z,26.46
2018-04-18T10:41:26.895Z,26.47
2018-04-18T10:42:31.591Z,26.30
2018-04-18T10:43:37.065Z,26.25
2018-04-18T10:44:42.889Z,25.97
2018-04-18T10:45:48.058Z,25.92
2018-04-18T10:46:53.873Z,26.11
2018-04-18T10:47:59.057Z,26.08
2018-04-18T10:49:05.189Z,26.05
2018-04-18T10:50:10.369Z,26.15
2018-04-18T10:51:16.217Z,25.91
2018-04-18T10:52:21.738Z,26.29
2018-04-18T10:53:26.867Z,26.15
2018-04-18T10:54:32.727Z,26.31
2018-04-18T10:55:37.870Z,26.33
2018-04-18T10:56:43.705Z,26.24
2018-04-18T10:57:49.275Z,26.15
2018-04-18T10:58:54.166Z,26.33
2018-04-18T11:00:02.085Z,26.38
2018-04-18T11:01:06.690Z,26.28
2018-04-18T11:02:11.230Z,26.35
2018-04-18T11:03:16.992Z,26.60
2018-04-18T11:04:21.891Z,26.76
2018-04-18T11:05:26.798Z,26.90
2018-04-18T11:06:32.358Z,26.94
2018-04-18T11:07:37.305Z,26.88
2018-04-18T11:08:43.913Z,26.90
2018-04-18T11:09:49.020Z,27.06
2018-04-18T11:10:54.071Z,27.03
2018-04-18T11:11:59.606Z,26.56
2018-04-18T11:13:05.361Z,26.60
2018-04-18T11:14:10.617Z,26.63
2018-04-18T11:15:15.971Z,26.71
2018-04-18T11:16:21.807Z,26.65
2018-04-18T11:17:27.442Z,26.41
2018-04-18T11:18:32.982Z,26.45
2018-04-18T11:19:38.894Z,26.59
2018-04-18T11:20:43.712Z,26.90
2018-04-18T11:21:49.018Z,27.12
2018-04-18T11:22:54.708Z,27.39
2018-04-18T11:23:59.594Z,27.40
2018-04-18T11:25:05.852Z,27.29
2018-04-18T11:26:11.759Z,26.91
2018-04-18T11:27:17.311Z,26.89
2018-04-18T11:28:22.463Z,26.82
2018-04-18T11:29:27.344Z,27.01
2018-04-18T11:30:32.358Z,27.04
2018-04-18T11:31:39.186Z,26.99
2018-04-18T11:32:44.559Z,26.98
2018-04-18T11:33:49.748Z,26.79
2018-04-18T11:34:54.442Z,26.29
2018-04-18T11:36:00.263Z,26.04
2018-04-18T11:37:05.731Z,25.55
2018-04-18T11:38:11.241Z,25.39
2018-04-18T11:39:20.623Z,25.38
2018-04-18T11:40:25.662Z,25.46
2018-04-18T11:41:30.195Z,25.86
2018-04-18T11:42:34.802Z,26.43
2018-04-18T11:43:39.572Z,26.68
2018-04-18T11:44:45.164Z,27.18
2018-04-18T11:45:49.915Z,27.37
2018-04-18T11:46:55.824Z,27.17
2018-04-18T11:48:02.774Z,26.70
2018-04-18T11:49:07.472Z,26.71
2018-04-18T11:50:13.311Z,26.44
2018-04-18T11:51:18.958Z,26.20
2018-04-18T11:52:24.396Z,26.20
2018-04-18T11:53:29.134Z,25.79
2018-04-18T11:54:34.752Z,25.53
2018-04-18T11:55:40.925Z,25.27
2018-04-18T11:56:46.457Z,25.35
2018-04-18T11:57:51.337Z,25.22
2018-04-18T11:58:56.274Z,25.68
2018-04-18T12:00:01.040Z,25.87
2018-04-18T12:01:06.125Z,25.64
2018-04-18T12:02:11.765Z,25.11
2018-04-18T12:03:17.828Z,24.68
2018-04-18T12:04:23.114Z,24.68
2018-04-18T12:05:28.888Z,24.80
2018-04-18T12:06:35.162Z,24.77
2018-04-18T12:07:40.157Z,24.79
2018-04-18T12:08:45.684Z,24.93
2018-04-18T12:09:51.840Z,25.05
2018-04-18T12:10:57.546Z,24.86
2018-04-18T12:12:02.369Z,25.03
2018-04-18T12:13:07.609Z,24.93
2018-04-18T12:14:13.458Z,25.12
2018-04-18T12:15:18.945Z,25.07
2018-04-18T12:16:25.057Z,24.75
2018-04-18T12:17:31.199Z,24.48
2018-04-18T12:18:37.091Z,24.34
2018-04-18T12:19:42.559Z,24.14
2018-04-18T12:20:47.453Z,24.04
2018-04-18T12:21:53.803Z,23.86
2018-04-18T12:22:58.999Z,24.00
2018-04-18T12:24:05.378Z,24.14
2018-04-18T12:25:11.034Z,23.99
2018-04-18T12:26:15.685Z,24.04
2018-04-18T12:27:21.286Z,24.19
2018-04-18T12:28:27.497Z,24.25
2018-04-18T12:29:32.193Z,24.19
2018-04-18T12:30:37.055Z,23.83
2018-04-18T12:31:42.287Z,23.94
2018-04-18T12:32:47.707Z,24.28
2018-04-18T12:33:53.826Z,24.41
2018-04-18T12:34:58.420Z,24.34
2018-04-18T12:36:03.833Z,24.16
2018-04-18T12:37:08.512Z,24.21
2018-04-18T12:38:13.180Z,24.05
2018-04-18T12:39:18.027Z,24.12
2018-04-18T12:40:23.192Z,23.92
2018-04-18T12:41:27.911Z,24.44
2018-04-18T12:42:32.561Z,24.56
2018-04-18T12:43:40.285Z,24.28
2018-04-18T12:44:45.133Z,24.74
2018-04-18T12:45:52.959Z,24.78
2018-04-18T12:46:58.121Z,24.82
2018-04-18T12:48:02.779Z,24.68
2018-04-18T12:49:08.087Z,24.25
2018-04-18T12:50:12.717Z,23.90
2018-04-18T12:51:17.312Z,23.27
2018-04-18T12:52:22.503Z,23.58
2018-04-18T12:53:28.795Z,23.82
2018-04-18T12:54:33.522Z,24.00
2018-04-18T12:55:38.160Z,24.33
2018-04-18T12:56:42.785Z,23.85
2018-04-18T12:57:48.122Z,23.64
2018-04-18T12:58:52.773Z,23.26
2018-04-18T12:59:59.172Z,23.10
2018-04-18T13:01:03.770Z,23.69
2018-04-18T13:02:08.313Z,24.06
2018-04-18T13:03:14.073Z,23.95
2018-04-18T13:04:19.076Z,24.13
2018-04-18T13:05:24.008Z,23.99
2018-04-18T13:06:29.886Z,23.96
2018-04-18T13:07:34.525Z,23.72
2018-04-18T13:08:39.085Z,23.90
2018-04-18T13:09:43.759Z,24.31
2018-04-18T13:10:48.434Z,24.65
2018-04-18T13:11:54.932Z,24.69
2018-04-18T13:12:59.722Z,24.43
2018-04-18T13:14:05.282Z,24.39
2018-04-18T13:15:10.042Z,24.12
2018-04-18T13:16:14.984Z,23.86
2018-04-18T13:17:19.622Z,23.58
2018-04-18T13:18:24.653Z,23.40
2018-04-18T13:19:29.467Z,23.28
2018-04-18T13:20:35.802Z,23.25
2018-04-18T13:21:40.319Z,22.80
2018-04-18T13:22:44.802Z,22.75
2018-04-18T13:23:49.704Z,22.77
2018-04-18T13:24:54.683Z,22.42
2018-04-18T13:25:59.201Z,22.28
2018-04-18T13:27:04.867Z,22.02
2018-04-18T13:28:09.453Z,21.94
2018-04-18T13:29:14.569Z,21.83
2018-04-18T13:30:19.066Z,21.60
2018-04-18T13:31:24.498Z,21.51
2018-04-18T13:32:29.094Z,21.66
2018-04-18T13:33:33.760Z,21.99
2018-04-18T13:34:38.656Z,21.46
2018-04-18T13:35:43.330Z,20.89
2018-04-18T13:36:48.214Z,21.44
2018-04-18T13:37:54.708Z,21.56
2018-04-18T13:38:59.429Z,21.89
2018-04-18T13:40:04.250Z,21.83
2018-04-18T13:41:09.646Z,21.94
2018-04-18T13:42:14.330Z,22.02
2018-04-18T13:43:20.337Z,22.33
2018-04-18T13:44:26.590Z,22.51
2018-04-18T13:45:32.303Z,22.23
2018-04-18T13:46:38.861Z,22.26
2018-04-18T13:47:44.067Z,22.96
2018-04-18T13:48:49.623Z,23.09
2018-04-18T13:49:55.029Z,23.27
2018-04-18T13:51:00.645Z,23.42
2018-04-18T13:52:05.901Z,23.61
2018-04-18T13:53:12.114Z,23.44
2018-04-18T13:54:17.003Z,23.47
2018-04-18T13:55:21.640Z,23.29
2018-04-18T13:56:26.351Z,23.35
2018-04-18T13:57:31.492Z,23.33
2018-04-18T13:58:36.333Z,23.34
2018-04-18T13:59:41.157Z,23.60
2018-04-18T14:00:45.810Z,23.69
2018-04-18T14:01:51.688Z,23.68
2018-04-18T14:02:56.278Z,23.63
2018-04-18T14:04:01.309Z,23.48
2018-04-18T14:05:06.103Z,22.97
2018-04-18T14:06:10.749Z,22.49